createdAt,value
2019-04-06T00:00:33.737Z,24.17
2019-04-06T00:03:03.157Z,20.30
2019-04-06T00:05:32.463Z,16.00
2019-04-06T00:08:02.822Z,22.50
2019-04-06T00:10:32.183Z,25.73
2019-04-06T00:13:01.544Z,26.53
2019-04-06T00:15:30.917Z,37.87
2019-04-06T00:18:00.291Z,20.33
2019-04-06T00:20:29.660Z,23.60
2019-04-06T00:22:59.019Z,22.27
2019-04-06T00:25:28.381Z,21.03
2019-04-06T00:27:57.746Z,25.73
2019-04-06T00:30:28.926Z,21.83
2019-04-06T00:32:59.922Z,17.50
2019-04-06T00:35:29.307Z,15.80
2019-04-06T00:37:58.682Z,20.87
2019-04-06T00:40:28.041Z,21.17
2019-04-06T00:42:58.697Z,25.47
2019-04-06T00:45:28.087Z,22.50
2019-04-06T00:47:57.436Z,23.53
2019-04-06T00:50:26.803Z,21.03
2019-04-06T00:52:56.559Z,20.27
2019-04-06T00:55:25.924Z,27.97
2019-04-06T00:57:55.278Z,22.70
2019-04-06T01:00:24.648Z,24.70
2019-04-06T01:02:54.001Z,17.90
2019-04-06T01:05:23.358Z,18.67
2019-04-06T01:07:52.729Z,15.80
2019-04-06T01:10:23.528Z,23.47
2019-04-06T01:12:53.140Z,19.70
2019-04-06T01:15:23.186Z,17.27
2019-04-06T01:17:55.478Z,23.17
2019-04-06T01:20:24.838Z,27.73
2019-04-06T01:22:54.217Z,23.90
2019-04-06T01:25:23.629Z,18.57
2019-04-06T01:27:52.932Z,24.03
2019-04-06T01:30:22.350Z,23.63
2019-04-06T01:32:51.732Z,26.67
2019-04-06T01:35:21.093Z,23.30
2019-04-06T01:37:51.285Z,19.07
2019-04-06T01:40:20.699Z,25.43
2019-04-06T01:42:50.052Z,19.27
2019-04-06T01:45:19.439Z,23.77
2019-04-06T01:47:48.815Z,15.37
2019-04-06T01:50:18.179Z,21.27
2019-04-06T01:52:47.637Z,19.03
2019-04-06T02:14:19.150Z,18.47
2019-04-06T02:16:48.510Z,23.60
2019-04-06T02:19:17.924Z,22.07
2019-04-06T02:21:47.301Z,21.13
2019-04-06T02:24:16.654Z,25.43
2019-04-06T02:26:46.015Z,20.57
2019-04-06T02:29:15.414Z,17.70
2019-04-06T02:31:58.403Z,22.17
2019-04-06T02:34:29.444Z,25.63
2019-04-06T02:37:06.307Z,24.00
2019-04-06T02:39:53.460Z,19.87
2019-04-06T02:42:24.519Z,30.17
2019-04-06T02:44:53.879Z,27.83
2019-04-06T02:47:24.812Z,32.17
2019-04-06T02:49:54.313Z,23.90
2019-04-06T02:52:23.922Z,23.47
2019-04-06T02:54:54.132Z,21.80
2019-04-06T02:57:23.503Z,22.00
2019-04-06T02:59:55.792Z,22.30
2019-04-06T03:02:25.168Z,25.00
2019-04-06T03:04:54.528Z,25.00
2019-04-06T03:07:23.959Z,24.77
2019-04-06T03:09:53.425Z,18.57
2019-04-06T03:12:26.059Z,21.17
2019-04-06T03:14:57.243Z,28.60
2019-04-06T03:17:26.611Z,25.70
2019-04-06T03:19:55.977Z,27.17
2019-04-06T03:22:25.377Z,30.23
2019-04-06T03:24:54.763Z,23.80
2019-04-06T03:27:24.183Z,22.40
2019-04-06T03:29:58.261Z,23.93
2019-04-06T03:32:24.779Z,26.93
2019-04-06T03:34:55.809Z,24.43
2019-04-06T03:37:25.603Z,29.17
2019-04-06T03:39:54.954Z,20.93
2019-04-06T03:42:24.401Z,18.93
2019-04-06T03:44:53.890Z,21.90
2019-04-06T03:47:24.739Z,24.57
2019-04-06T03:49:57.049Z,25.87
2019-04-06T03:52:27.096Z,20.70
2019-04-06T03:54:56.464Z,26.77
2019-04-06T03:57:25.911Z,28.27
2019-04-06T03:59:55.278Z,22.23
2019-04-06T04:02:24.645Z,22.20
2019-04-06T04:04:54.155Z,23.47
2019-04-06T04:07:23.577Z,25.43
2019-04-06T04:09:52.936Z,25.83
2019-04-06T04:12:22.445Z,22.57
2019-04-06T04:14:54.937Z,23.27
2019-04-06T04:17:24.862Z,25.93
2019-04-06T04:19:54.332Z,30.77
2019-04-06T04:22:23.719Z,25.20
2019-04-06T04:24:53.084Z,66.93
2019-04-06T04:27:29.851Z,84.50
2019-04-06T04:29:56.900Z,48.43
2019-04-06T04:32:26.867Z,31.70
2019-04-06T04:34:56.308Z,55.93
2019-04-06T04:37:25.676Z,38.30
2019-04-06T04:39:55.810Z,37.43
2019-04-06T04:42:25.129Z,31.77
2019-04-06T04:44:54.497Z,27.27
2019-04-06T04:47:23.876Z,26.23
2019-04-06T04:49:53.235Z,26.87
2019-04-06T04:52:24.176Z,22.73
2019-04-06T04:54:53.557Z,31.47
2019-04-06T04:57:22.921Z,30.27
2019-04-06T04:59:52.293Z,29.60
2019-04-06T05:02:21.666Z,27.03
2019-04-06T05:04:52.686Z,31.17
2019-04-06T05:07:22.092Z,31.27
2019-04-06T05:09:51.435Z,27.93
2019-04-06T05:12:21.463Z,22.47
2019-04-06T05:15:04.564Z,27.77
2019-04-06T05:17:33.944Z,32.60
2019-04-06T05:20:06.366Z,25.57
2019-04-06T05:22:35.849Z,23.70
2019-04-06T05:25:07.764Z,24.55
2019-04-06T05:27:37.704Z,24.43
2019-04-06T05:30:10.864Z,26.87
2019-04-06T05:32:40.306Z,25.17
2019-04-06T05:35:10.771Z,20.77
2019-04-06T05:37:40.133Z,23.40
2019-04-06T05:40:10.000Z,32.17
2019-04-06T05:42:39.376Z,27.93
2019-04-06T05:45:09.695Z,44.77
2019-04-06T05:47:39.125Z,28.53
2019-04-06T05:50:08.882Z,30.60
2019-04-06T05:52:38.297Z,31.80
2019-04-06T05:55:07.802Z,29.27
2019-04-06T05:57:37.777Z,35.90
2019-04-06T06:00:10.489Z,27.37
2019-04-06T06:02:41.304Z,28.20
2019-04-06T06:05:11.425Z,30.20
2019-04-06T06:07:41.290Z,24.03
2019-04-06T06:10:10.978Z,40.83
2019-04-06T06:12:40.331Z,33.93
2019-04-06T06:15:10.223Z,28.43
2019-04-06T06:17:39.594Z,34.33
2019-04-06T06:20:09.272Z,35.60
2019-04-06T06:22:38.669Z,28.03
2019-04-06T06:25:10.317Z,26.90
2019-04-06T06:27:39.669Z,23.17
2019-04-06T06:30:10.085Z,32.67
2019-04-06T06:32:39.465Z,33.97
2019-04-06T06:35:09.047Z,31.83
2019-04-06T06:37:38.432Z,28.63
2019-04-06T06:40:08.209Z,29.07
2019-04-06T06:42:37.564Z,32.87
2019-04-06T06:45:09.853Z,33.97
2019-04-06T06:47:39.206Z,32.23
2019-04-06T06:50:09.082Z,32.67
2019-04-06T06:52:39.100Z,34.23
2019-04-06T06:55:08.900Z,33.37
2019-04-06T06:57:38.259Z,33.27
2019-04-06T07:00:08.454Z,33.37
2019-04-06T07:02:38.120Z,37.70
2019-04-06T07:05:08.119Z,31.60
2019-04-06T07:07:37.490Z,32.87
2019-04-06T07:10:08.646Z,35.63
2019-04-06T07:12:57.369Z,37.40
2019-04-06T07:15:26.738Z,37.77
2019-04-06T07:17:56.100Z,34.80
2019-04-06T07:20:25.495Z,37.37
2019-04-06T07:22:54.867Z,32.93
2019-04-06T07:25:25.022Z,29.83
2019-04-06T07:27:54.534Z,38.80
2019-04-06T07:30:23.984Z,36.77
2019-04-06T07:32:55.342Z,37.63
2019-04-06T07:35:24.487Z,38.67
2019-04-06T07:37:53.916Z,38.70
2019-04-06T07:40:23.274Z,33.90
2019-04-06T07:42:52.660Z,34.47
2019-04-06T07:45:22.031Z,33.93
2019-04-06T07:47:51.440Z,34.63
2019-04-06T07:50:21.050Z,38.53
2019-04-06T07:52:50.405Z,42.37
2019-04-06T07:55:19.846Z,41.00
2019-04-06T07:57:49.701Z,39.93
2019-04-06T08:00:19.331Z,42.63
2019-04-06T08:02:48.625Z,41.13
2019-04-06T08:05:18.037Z,60.43
2019-04-06T08:07:47.391Z,54.50
2019-04-06T08:10:20.367Z,59.40
2019-04-06T08:12:50.037Z,51.90
2019-04-06T08:15:19.415Z,54.93
2019-04-06T08:17:48.781Z,57.07
2019-04-06T08:20:18.298Z,55.93
2019-04-06T08:22:50.512Z,49.60
2019-04-06T08:25:21.316Z,54.00
2019-04-06T08:27:52.012Z,59.13
2019-04-06T08:30:21.389Z,58.57
2019-04-06T08:32:50.753Z,56.93
2019-04-06T08:35:26.156Z,55.67
2019-04-06T08:37:51.479Z,53.87
2019-04-06T08:40:21.661Z,57.30
2019-04-06T08:42:51.290Z,51.63
2019-04-06T08:45:20.733Z,57.03
2019-04-06T08:47:50.092Z,56.37
2019-04-06T08:50:21.505Z,55.70
2019-04-06T08:52:51.384Z,54.20
2019-04-06T08:55:20.733Z,53.23
2019-04-06T08:57:50.182Z,50.67
2019-04-06T09:00:20.373Z,57.03
2019-04-06T09:02:49.725Z,54.77
2019-04-06T09:05:19.148Z,51.53
2019-04-06T09:07:48.509Z,51.10
2019-04-06T09:10:17.940Z,47.07
2019-04-06T09:12:48.505Z,54.23
2019-04-06T09:15:18.409Z,55.40
2019-04-06T09:17:52.458Z,51.37
2019-04-06T09:20:21.882Z,52.07
2019-04-06T09:22:51.226Z,47.47
2019-04-06T09:25:20.608Z,49.03
2019-04-06T09:27:50.018Z,44.53
2019-04-06T09:30:19.740Z,45.23
2019-04-06T09:32:49.128Z,47.53
2019-04-06T09:35:18.507Z,46.53
2019-04-06T09:37:47.862Z,49.40
2019-04-06T09:40:17.294Z,47.13
2019-04-06T09:42:47.695Z,44.27
2019-04-06T09:45:30.773Z,45.83
2019-04-06T09:48:08.016Z,43.20
2019-04-06T09:52:05.207Z,47.53
2019-04-06T09:54:36.233Z,45.17
2019-04-06T09:57:10.416Z,44.13
2019-04-06T09:59:50.374Z,45.33
2019-04-06T10:02:30.530Z,49.30
2019-04-06T10:05:20.000Z,43.33
2019-04-06T10:08:03.329Z,41.30
2019-04-06T10:10:34.492Z,40.37
2019-04-06T10:13:20.384Z,41.50
2019-04-06T10:16:00.638Z,44.20
2019-04-06T10:18:34.862Z,41.90
2019-04-06T10:21:05.876Z,42.60
2019-04-06T10:23:53.755Z,42.50
2019-04-06T10:26:27.475Z,41.63
2019-04-06T10:29:04.419Z,38.67
2019-04-06T10:31:36.937Z,42.30
2019-04-06T10:34:08.000Z,42.47
2019-04-06T10:36:55.104Z,43.90
2019-04-06T10:39:26.041Z,40.87
2019-04-06T10:42:06.699Z,42.20
2019-04-06T10:44:37.715Z,43.20
2019-04-06T10:47:15.726Z,42.53
2019-04-06T10:50:01.908Z,42.83
2019-04-06T10:52:41.534Z,40.63
2019-04-06T10:55:21.965Z,43.07
2019-04-06T10:57:56.220Z,40.80
2019-04-06T11:00:43.792Z,41.00
2019-04-06T11:03:14.829Z,37.53
2019-04-06T11:05:45.843Z,38.20
2019-04-06T11:08:33.326Z,39.27
2019-04-06T11:11:04.539Z,39.30
2019-04-06T11:13:41.757Z,43.33
2019-04-06T11:16:12.772Z,37.83
2019-04-06T11:18:59.710Z,41.87
2019-04-06T11:21:46.934Z,43.53
2019-04-06T11:24:34.319Z,34.70
2019-04-06T11:27:05.338Z,34.87
2019-04-06T11:29:52.957Z,45.50
2019-04-06T11:32:33.085Z,36.37
2019-04-06T11:35:14.715Z,40.87
2019-04-06T11:37:48.222Z,38.00
2019-04-06T11:40:34.258Z,42.27
2019-04-06T11:43:20.421Z,40.40
2019-04-06T11:45:54.534Z,40.43
2019-04-06T11:48:40.873Z,44.63
2019-04-06T11:51:25.328Z,37.17
2019-04-06T11:54:02.280Z,36.90
2019-04-06T11:56:49.693Z,37.60
2019-04-06T11:59:20.637Z,35.13
2019-04-06T12:01:51.644Z,41.03
2019-04-06T12:04:32.272Z,34.43
2019-04-06T12:07:12.730Z,34.37
2019-04-06T12:09:43.847Z,34.83
2019-04-06T12:12:29.982Z,32.60
2019-04-06T12:15:01.018Z,38.13
2019-04-06T12:17:32.034Z,36.57
2019-04-06T12:20:18.475Z,34.03
2019-04-06T12:22:58.300Z,34.03
2019-04-06T12:25:32.007Z,35.50
2019-04-06T12:28:03.171Z,32.80
2019-04-06T12:30:52.671Z,37.67
2019-04-06T12:33:23.672Z,32.50
2019-04-06T12:36:11.376Z,34.40
2019-04-06T12:39:00.813Z,37.87
2019-04-06T12:41:43.809Z,35.17
2019-04-06T12:44:24.179Z,34.07
2019-04-06T12:46:57.728Z,32.67
2019-04-06T12:49:28.754Z,53.33
2019-04-06T12:52:16.825Z,31.90
2019-04-06T12:54:50.963Z,37.60
2019-04-06T12:57:57.896Z,32.37
2019-04-06T13:00:52.575Z,29.40
2019-04-06T13:03:27.166Z,30.50
2019-04-06T13:06:14.904Z,33.40
2019-04-06T13:08:55.132Z,34.47
2019-04-06T13:11:26.140Z,33.13
2019-04-06T13:14:00.124Z,32.43
2019-04-06T13:16:34.137Z,34.20
2019-04-06T13:19:05.484Z,36.10
2019-04-06T13:21:52.802Z,35.70
2019-04-06T13:24:23.847Z,29.37
2019-04-06T13:26:54.884Z,29.67
2019-04-06T13:29:35.716Z,28.30
2019-04-06T13:32:09.796Z,28.93
2019-04-06T13:34:56.078Z,30.23
2019-04-06T13:37:33.162Z,27.33
2019-04-06T13:40:11.476Z,26.67
2019-04-06T13:42:42.466Z,31.07
2019-04-06T13:45:28.704Z,33.13
2019-04-06T13:48:02.488Z,29.40
2019-04-06T13:50:39.347Z,33.37
2019-04-06T13:53:27.118Z,26.97
2019-04-06T13:56:07.085Z,29.20
2019-04-06T13:58:44.119Z,26.50
2019-04-06T14:01:20.956Z,26.10
2019-04-06T14:04:07.926Z,29.07
2019-04-06T14:06:53.999Z,28.50
2019-04-06T14:09:27.795Z,29.70
2019-04-06T14:12:01.797Z,29.90
2019-04-06T14:14:38.802Z,25.80
2019-04-06T14:17:09.901Z,23.47
2019-04-06T14:19:40.900Z,27.20
2019-04-06T14:22:27.197Z,24.33
2019-04-06T14:25:00.958Z,27.00
2019-04-06T14:27:37.450Z,31.40
2019-04-06T14:30:26.677Z,26.77
2019-04-06T14:32:58.767Z,29.50
2019-04-06T14:35:42.258Z,30.97
2019-04-06T14:38:30.492Z,36.53
2019-04-06T14:41:01.513Z,23.17
2019-04-06T14:43:45.823Z,27.83
2019-04-06T14:46:16.831Z,25.93
2019-04-06T14:49:09.614Z,25.77
2019-04-06T14:51:30.374Z,22.93
2019-04-06T14:54:04.365Z,31.63
2019-04-06T14:56:35.492Z,28.75
2019-04-06T14:59:12.381Z,24.17
2019-04-06T15:01:57.702Z,22.97
2019-04-06T15:04:31.122Z,23.80
2019-04-06T15:07:10.803Z,23.67
2019-04-06T15:09:37.943Z,23.97
2019-04-06T15:12:23.058Z,42.40
2019-04-06T15:14:53.422Z,24.23
2019-04-06T15:17:40.108Z,21.77
2019-04-06T15:20:11.289Z,43.67
2019-04-06T15:22:59.189Z,29.33
2019-04-06T15:25:30.191Z,28.93
2019-04-06T15:28:17.409Z,23.17
2019-04-06T15:30:54.399Z,25.80
2019-04-06T15:33:25.567Z,25.90
2019-04-06T15:36:05.863Z,26.00
2019-04-06T15:38:49.095Z,24.00
2019-04-06T15:41:20.106Z,28.90
2019-04-06T15:44:02.904Z,23.00
2019-04-06T15:46:43.685Z,22.23
2019-04-06T15:49:14.889Z,30.03
2019-04-06T15:51:45.889Z,26.63
2019-04-06T15:54:19.870Z,27.93
2019-04-06T15:56:54.863Z,23.23
2019-04-06T15:59:42.464Z,25.13
2019-04-06T16:02:13.491Z,21.82
2019-04-06T16:04:50.522Z,24.00
2019-04-06T16:07:31.440Z,23.17
2019-04-06T16:09:54.281Z,21.27
2019-04-06T16:12:35.681Z,19.50
2019-04-06T16:15:18.032Z,19.45
2019-04-06T16:17:51.995Z,27.07
2019-04-06T16:20:35.267Z,22.73
2019-04-06T16:23:06.318Z,24.43
2019-04-06T16:25:37.508Z,16.73
2019-04-06T16:28:11.573Z,20.63
2019-04-06T16:30:51.956Z,18.57
2019-04-06T16:33:22.979Z,14.20
2019-04-06T16:36:10.761Z,15.53
2019-04-06T16:38:45.016Z,15.77
2019-04-06T16:41:32.077Z,16.17
2019-04-06T16:44:18.228Z,16.43
2019-04-06T16:46:49.693Z,18.37
2019-04-06T16:49:38.779Z,15.27
2019-04-06T16:52:27.769Z,16.73
2019-04-06T16:55:01.581Z,18.13
2019-04-06T16:57:44.984Z,16.37
2019-04-06T17:00:20.794Z,13.93
2019-04-06T17:03:10.454Z,17.97
2019-04-06T17:05:46.147Z,18.80
2019-04-06T17:08:20.264Z,16.07
2019-04-06T17:11:08.257Z,17.17
2019-04-06T17:13:45.343Z,13.90
2019-04-06T17:16:17.071Z,14.70
2019-04-06T17:18:48.484Z,13.00
2019-04-06T17:22:19.203Z,13.17
2019-04-06T17:24:58.803Z,17.07
2019-04-06T17:27:45.955Z,16.00
2019-04-06T17:30:23.230Z,16.40
2019-04-06T17:33:06.295Z,16.97
2019-04-06T17:35:43.505Z,14.65
2019-04-06T17:38:29.446Z,14.47
2019-04-06T17:41:16.350Z,17.15
2019-04-06T17:44:05.856Z,17.10
2019-04-06T17:46:37.088Z,14.93
2019-04-06T17:49:14.260Z,17.43
2019-04-06T17:51:48.520Z,14.93
2019-04-06T17:54:32.567Z,15.60
2019-04-06T17:57:03.784Z,15.17
2019-04-06T17:59:35.040Z,15.63
2019-04-06T18:02:18.748Z,20.37
2019-04-06T18:04:52.803Z,15.10
2019-04-06T18:07:29.380Z,16.43
2019-04-06T18:10:03.543Z,14.53
2019-04-06T18:12:52.772Z,14.50
2019-04-06T18:15:22.073Z,19.70
2019-04-06T18:17:51.450Z,21.80
2019-04-06T18:20:20.851Z,15.57
2019-04-06T18:22:50.890Z,19.73
2019-04-06T18:25:20.251Z,21.37
2019-04-06T18:27:49.657Z,18.50
2019-04-06T18:30:19.341Z,15.63
2019-04-06T18:33:02.587Z,15.60
2019-04-06T18:35:30.754Z,16.10
2019-04-06T18:38:07.875Z,18.00
2019-04-06T18:40:38.105Z,17.70
2019-04-06T18:43:07.525Z,13.90
2019-04-06T18:45:36.983Z,14.23
2019-04-06T18:48:06.751Z,17.37
2019-04-06T18:50:38.786Z,22.77
2019-04-06T18:53:07.831Z,21.93
2019-04-06T18:55:37.166Z,16.63
2019-04-06T18:58:11.636Z,15.60
2019-04-06T19:00:37.758Z,20.53
2019-04-06T19:03:14.080Z,13.60
2019-04-06T19:05:38.241Z,19.70
2019-04-06T19:08:07.628Z,16.43
2019-04-06T19:10:37.094Z,17.23
2019-04-06T19:13:07.075Z,20.83
2019-04-06T19:15:36.621Z,21.77
2019-04-06T19:18:06.069Z,17.13
2019-04-06T19:20:36.051Z,24.20
2019-04-06T19:23:05.583Z,16.47
2019-04-06T19:25:35.399Z,19.03
2019-04-06T19:28:04.809Z,21.60
2019-04-06T19:30:34.204Z,29.70
2019-04-06T19:33:03.578Z,26.47
2019-04-06T19:35:33.134Z,23.77
2019-04-06T19:38:03.128Z,25.67
2019-04-06T19:40:32.486Z,41.83
2019-04-06T19:43:02.847Z,34.63
2019-04-06T19:45:32.851Z,33.43
2019-04-06T19:48:02.238Z,34.67
2019-04-06T19:50:31.619Z,34.43
2019-04-06T19:53:01.007Z,25.63
2019-04-06T19:55:30.374Z,17.63
2019-04-06T19:57:59.809Z,15.33
2019-04-06T20:00:29.359Z,17.07
2019-04-06T20:02:58.739Z,20.03
2019-04-06T20:05:28.590Z,16.53
2019-04-06T20:07:57.996Z,17.37
2019-04-06T20:10:27.479Z,20.67
2019-04-06T20:12:59.656Z,17.70
2019-04-06T20:15:29.175Z,14.03
2019-04-06T20:17:59.102Z,15.67
2019-04-06T20:20:28.846Z,19.57
2019-04-06T20:22:58.955Z,22.13
2019-04-06T20:25:28.342Z,26.80
2019-04-06T20:27:57.716Z,14.77
2019-04-06T20:30:27.292Z,18.53
2019-04-06T20:32:56.659Z,14.80
2019-04-06T20:35:26.116Z,17.57
2019-04-06T20:37:55.590Z,15.57
2019-04-06T20:40:25.898Z,16.07
2019-04-06T20:42:55.366Z,16.00
2019-04-06T20:45:27.087Z,18.07
2019-04-06T20:47:56.470Z,18.80
2019-04-06T20:50:25.835Z,13.27
2019-04-06T20:52:55.250Z,14.07
2019-04-06T20:55:24.645Z,17.57
2019-04-06T20:57:58.229Z,17.57
2019-04-06T21:00:27.785Z,16.82
2019-04-06T21:02:57.135Z,20.17
2019-04-06T21:05:26.509Z,21.03
2019-04-06T21:08:15.768Z,16.97
2019-04-06T21:10:45.787Z,18.90
2019-04-06T21:13:15.769Z,17.33
2019-04-06T21:15:47.823Z,12.00
2019-04-06T21:18:17.765Z,16.47
2019-04-06T21:20:48.882Z,17.80
2019-04-06T21:23:18.603Z,17.17
2019-04-06T21:25:48.045Z,13.67
2019-04-06T21:28:18.083Z,15.53
2019-04-06T21:30:47.871Z,14.93
2019-04-06T21:33:17.882Z,17.27
2019-04-06T21:35:47.475Z,16.87
2019-04-06T21:38:17.110Z,19.27
2019-04-06T21:40:46.711Z,14.23
2019-04-06T21:43:16.065Z,13.67
2019-04-06T21:45:45.687Z,18.73
2019-04-06T21:48:16.214Z,16.13
2019-04-06T21:50:45.605Z,17.57
2019-04-06T21:53:15.083Z,16.73
2019-04-06T21:55:44.530Z,21.27
2019-04-06T21:58:18.745Z,15.07
2019-04-06T22:00:55.706Z,21.83
2019-04-06T22:03:25.942Z,16.70
2019-04-06T22:05:55.778Z,13.00
2019-04-06T22:08:25.901Z,15.13
2019-04-06T22:10:55.315Z,18.10
2019-04-06T22:13:24.988Z,13.83
2019-04-06T22:15:55.470Z,17.23
2019-04-06T22:18:25.005Z,16.33
2019-04-06T22:20:54.565Z,13.57
2019-04-06T22:23:25.206Z,17.27
2019-04-06T22:25:55.256Z,20.43
2019-04-06T22:28:24.641Z,16.97
2019-04-06T22:30:54.162Z,15.43
2019-04-06T22:33:23.887Z,15.43
2019-04-06T22:35:53.302Z,18.27
2019-04-06T22:38:22.755Z,14.53
2019-04-06T22:40:52.150Z,13.33
2019-04-06T22:43:21.529Z,12.17
2019-04-06T22:45:51.891Z,17.73
2019-04-06T22:48:21.751Z,18.67
2019-04-06T22:50:52.534Z,17.80
2019-04-06T22:53:23.640Z,16.30
2019-04-06T22:55:55.118Z,16.67
2019-04-06T22:58:25.301Z,13.27
2019-04-06T23:00:56.798Z,13.77
2019-04-06T23:03:33.480Z,16.53
2019-04-06T23:06:05.187Z,17.90
2019-04-06T23:08:34.564Z,17.67
2019-04-06T23:11:23.728Z,16.67
2019-04-06T23:13:55.144Z,17.33
2019-04-06T23:16:24.522Z,15.30
2019-04-06T23:18:53.966Z,16.63
2019-04-06T23:21:23.707Z,17.47
2019-04-06T23:23:54.250Z,15.73
2019-04-06T23:26:23.850Z,15.90
2019-04-06T23:28:53.178Z,15.00
2019-04-06T23:31:22.598Z,19.13
2019-04-06T23:33:52.938Z,17.63
2019-04-06T23:36:22.689Z,17.27
2019-04-06T23:38:52.110Z,17.67
2019-04-06T23:41:21.855Z,19.43
2019-04-06T23:43:51.782Z,18.20
2019-04-06T23:46:21.310Z,21.00
2019-04-06T23:48:52.059Z,18.67
2019-04-06T23:51:22.176Z,13.90
2019-04-06T23:53:52.481Z,18.53
2019-04-06T23:56:23.328Z,20.63
2019-04-06T23:58:52.693Z,21.10
